createdAt,value
2019-03-15T00:01:42.799Z,7.70
2019-03-15T00:04:11.708Z,7.70
2019-03-15T00:06:40.562Z,7.60
2019-03-15T00:09:12.855Z,7.60
2019-03-15T00:11:41.739Z,7.70
2019-03-15T00:14:10.873Z,7.70
2019-03-15T00:16:40.512Z,7.70
2019-03-15T00:19:11.414Z,7.80
2019-03-15T00:21:40.314Z,7.80
2019-03-15T00:24:09.837Z,7.80
2019-03-15T00:26:39.162Z,7.80
2019-03-15T00:29:08.104Z,7.80
2019-03-15T00:31:37.595Z,7.80
2019-03-15T00:34:09.401Z,7.80
2019-03-15T00:36:38.465Z,7.80
2019-03-15T00:39:07.864Z,7.70
2019-03-15T00:41:37.155Z,7.80
2019-03-15T00:44:06.069Z,7.80
2019-03-15T00:46:35.052Z,7.80
2019-03-15T00:49:04.373Z,7.80
2019-03-15T00:51:33.300Z,7.70
2019-03-15T00:54:03.467Z,7.70
2019-03-15T00:56:32.782Z,7.70
2019-03-15T00:59:02.311Z,7.70
2019-03-15T01:01:31.224Z,7.60
2019-03-15T01:04:00.442Z,7.70
2019-03-15T01:06:29.906Z,7.70
2019-03-15T01:08:58.819Z,7.60
2019-03-15T01:11:27.913Z,7.70
2019-03-15T01:13:57.973Z,7.60
2019-03-15T01:16:26.871Z,7.70
2019-03-15T01:18:55.712Z,7.70
2019-03-15T01:21:25.559Z,7.70
2019-03-15T01:23:54.396Z,7.70
2019-03-15T01:26:23.286Z,7.70
2019-03-15T01:28:52.210Z,7.70
2019-03-15T01:31:21.096Z,7.70
2019-03-15T01:33:50.353Z,7.70
2019-03-15T01:36:19.241Z,7.70
2019-03-15T01:38:48.128Z,7.70
2019-03-15T01:41:17.111Z,7.70
2019-03-15T01:43:46.306Z,7.70
2019-03-15T01:46:15.417Z,7.80
2019-03-15T01:48:44.373Z,7.80
2019-03-15T01:51:13.620Z,7.80
2019-03-15T01:53:42.799Z,7.80
2019-03-15T01:56:11.687Z,7.80
2019-03-15T01:58:41.323Z,7.80
2019-03-15T02:01:10.466Z,7.90
2019-03-15T02:03:40.962Z,7.90
2019-03-15T02:06:09.804Z,7.90
2019-03-15T02:08:38.602Z,7.90
2019-03-15T02:11:10.918Z,7.90
2019-03-15T02:13:41.229Z,7.90
2019-03-15T02:16:13.419Z,7.90
2019-03-15T02:18:42.319Z,7.90
2019-03-15T02:21:12.286Z,7.90
2019-03-15T02:23:41.204Z,7.90
2019-03-15T02:26:10.425Z,8.00
2019-03-15T02:28:39.525Z,7.90
2019-03-15T02:31:08.479Z,8.00
2019-03-15T02:33:37.366Z,8.00
2019-03-15T02:36:06.865Z,8.00
2019-03-15T02:38:36.049Z,8.00
2019-03-15T02:41:05.426Z,8.10
2019-03-15T02:43:34.623Z,8.10
2019-03-15T02:46:04.359Z,8.10
2019-03-15T02:48:33.307Z,8.10
2019-03-15T02:51:02.189Z,8.10
2019-03-15T02:53:31.893Z,8.20
2019-03-15T02:56:00.691Z,8.20
2019-03-15T02:58:34.041Z,8.20
2019-03-15T03:01:02.987Z,8.20
2019-03-15T03:03:32.266Z,8.20
2019-03-15T03:06:01.504Z,8.20
2019-03-15T03:08:30.900Z,8.20
2019-03-15T03:10:59.803Z,8.20
2019-03-15T03:13:30.498Z,8.30
2019-03-15T03:15:59.381Z,8.30
2019-03-15T03:18:29.498Z,8.30
2019-03-15T03:20:58.400Z,8.30
2019-03-15T03:23:27.366Z,8.20
2019-03-15T03:25:56.683Z,8.30
2019-03-15T03:28:26.187Z,8.30
2019-03-15T03:30:55.140Z,8.40
2019-03-15T03:33:24.028Z,8.30
2019-03-15T03:35:54.146Z,8.30
2019-03-15T03:38:22.972Z,8.30
2019-03-15T03:40:51.863Z,8.30
2019-03-15T03:43:20.836Z,8.30
2019-03-15T03:45:50.542Z,8.30
2019-03-15T03:48:19.345Z,8.20
2019-03-15T03:50:51.407Z,8.20
2019-03-15T03:53:20.909Z,8.20
2019-03-15T03:55:51.599Z,8.10
2019-03-15T03:58:20.754Z,8.20
2019-03-15T04:00:49.651Z,8.10
2019-03-15T04:03:18.759Z,8.10
2019-03-15T04:05:48.040Z,8.10
2019-03-15T04:08:16.948Z,8.00
2019-03-15T04:10:45.822Z,8.00
2019-03-15T04:13:14.689Z,8.00
2019-03-15T04:15:43.879Z,7.90
2019-03-15T04:18:13.972Z,7.90
2019-03-15T04:20:43.031Z,7.90
2019-03-15T04:23:13.249Z,7.90
2019-03-15T04:25:42.079Z,7.80
2019-03-15T04:28:12.617Z,7.70
2019-03-15T04:30:42.379Z,7.70
2019-03-15T04:33:11.542Z,7.60
2019-03-15T04:35:40.552Z,7.60
2019-03-15T04:38:09.708Z,7.50
2019-03-15T04:40:38.522Z,7.50
2019-03-15T04:43:07.408Z,7.40
2019-03-15T04:45:36.456Z,7.40
2019-03-15T04:48:05.470Z,7.40
2019-03-15T04:50:34.314Z,7.40
2019-03-15T04:53:03.491Z,7.40
2019-03-15T04:55:32.802Z,7.30
2019-03-15T04:58:01.904Z,7.20
2019-03-15T05:00:30.778Z,7.20
2019-03-15T05:02:59.658Z,7.20
2019-03-15T05:05:28.531Z,7.20
2019-03-15T05:07:57.516Z,7.20
2019-03-15T05:10:26.314Z,7.10
2019-03-15T05:12:55.520Z,7.10
2019-03-15T05:15:25.201Z,7.10
2019-03-15T05:17:54.063Z,7.00
2019-03-15T05:20:23.160Z,7.00
2019-03-15T05:22:52.402Z,6.90
2019-03-15T05:25:21.560Z,6.90
2019-03-15T05:27:50.749Z,6.90
2019-03-15T05:30:19.667Z,6.80
2019-03-15T05:32:48.480Z,6.80
2019-03-15T05:35:17.351Z,6.80
2019-03-15T05:37:46.190Z,6.70
2019-03-15T05:40:15.344Z,6.70
2019-03-15T05:42:44.643Z,6.70
2019-03-15T05:45:13.536Z,6.70
2019-03-15T05:47:42.581Z,6.70
2019-03-15T05:50:11.570Z,6.70
2019-03-15T05:52:40.859Z,6.60
2019-03-15T05:55:11.201Z,6.60
2019-03-15T05:57:40.093Z,6.60
2019-03-15T06:00:10.669Z,6.60
2019-03-15T06:02:39.906Z,6.60
2019-03-15T06:05:09.030Z,6.50
2019-03-15T06:07:39.386Z,6.50
2019-03-15T06:10:08.519Z,6.50
2019-03-15T06:12:37.849Z,6.50
2019-03-15T06:15:07.076Z,6.50
2019-03-15T06:17:37.267Z,6.50
2019-03-15T06:20:06.617Z,6.50
2019-03-15T06:22:35.446Z,6.50
2019-03-15T06:25:04.925Z,6.50
2019-03-15T06:27:36.240Z,6.60
2019-03-15T06:30:07.179Z,6.60
2019-03-15T06:32:36.141Z,6.60
2019-03-15T06:35:05.687Z,6.60
2019-03-15T06:37:37.206Z,6.60
2019-03-15T06:40:06.448Z,6.70
2019-03-15T06:42:35.555Z,6.70
2019-03-15T06:45:05.632Z,6.70
2019-03-15T06:47:36.004Z,6.70
2019-03-15T06:50:05.571Z,6.70
2019-03-15T06:52:34.540Z,6.80
2019-03-15T06:55:05.467Z,6.80
2019-03-15T06:57:35.024Z,6.80
2019-03-15T07:00:04.124Z,6.80
2019-03-15T07:02:33.301Z,6.90
2019-03-15T07:05:02.246Z,6.90
2019-03-15T07:07:31.209Z,7.00
2019-03-15T07:10:00.168Z,7.00
2019-03-15T07:12:29.633Z,7.00
2019-03-15T07:15:01.718Z,7.00
2019-03-15T07:17:31.140Z,7.10
2019-03-15T07:20:01.854Z,7.10
2019-03-15T07:22:31.933Z,7.10
2019-03-15T07:25:00.761Z,7.20
2019-03-15T07:27:31.507Z,7.20
2019-03-15T07:30:00.627Z,7.30
2019-03-15T07:32:30.574Z,7.40
2019-03-15T07:35:00.305Z,7.50
2019-03-15T07:37:29.274Z,7.70
2019-03-15T07:39:58.718Z,8.00
2019-03-15T07:42:27.592Z,8.20
2019-03-15T07:44:56.608Z,8.40
2019-03-15T07:47:25.534Z,8.80
2019-03-15T07:49:55.406Z,8.90
2019-03-15T07:52:24.601Z,9.10
2019-03-15T07:54:56.560Z,9.20
2019-03-15T07:57:26.023Z,9.30
2019-03-15T07:59:54.947Z,9.40
2019-03-15T08:02:23.984Z,9.50
2019-03-15T08:04:52.903Z,9.50
2019-03-15T08:07:35.802Z,9.60
2019-03-15T08:09:56.074Z,9.60
2019-03-15T08:12:25.741Z,9.70
2019-03-15T08:14:54.681Z,9.70
2019-03-15T08:17:23.968Z,9.80
2019-03-15T08:19:52.892Z,9.80
2019-03-15T08:22:21.849Z,9.90
2019-03-15T08:24:52.020Z,9.90
2019-03-15T08:27:21.775Z,10.00
2019-03-15T08:29:52.693Z,10.10
2019-03-15T08:32:21.805Z,10.10
2019-03-15T08:34:50.689Z,10.20
2019-03-15T08:37:20.299Z,10.30
2019-03-15T08:39:49.398Z,10.30
2019-03-15T08:42:19.439Z,10.30
2019-03-15T08:44:48.920Z,10.40
2019-03-15T08:47:21.460Z,10.50
2019-03-15T08:49:49.236Z,10.60
2019-03-15T08:52:18.484Z,10.60
2019-03-15T08:54:47.569Z,10.70
2019-03-15T08:57:16.565Z,10.70
2019-03-15T08:59:56.622Z,10.80
2019-03-15T09:02:16.478Z,10.80
2019-03-15T09:04:45.610Z,10.80
2019-03-15T09:07:21.888Z,10.90
2019-03-15T09:09:50.933Z,11.00
2019-03-15T09:12:19.861Z,10.90
2019-03-15T09:14:49.097Z,11.00
2019-03-15T09:17:20.026Z,11.00
2019-03-15T09:19:48.737Z,11.10
2019-03-15T09:22:17.701Z,11.10
2019-03-15T09:24:47.391Z,11.20
2019-03-15T09:27:16.981Z,11.30
2019-03-15T09:29:45.841Z,11.30
2019-03-15T09:32:15.971Z,11.30
2019-03-15T09:34:44.841Z,11.30
2019-03-15T09:37:14.160Z,11.30
2019-03-15T09:39:43.172Z,11.30
2019-03-15T09:42:12.080Z,11.30
2019-03-15T09:44:41.614Z,11.40
2019-03-15T09:47:18.049Z,11.30
2019-03-15T09:49:47.604Z,11.30
2019-03-15T09:52:20.017Z,11.40
2019-03-15T09:54:49.752Z,11.40
2019-03-15T09:57:19.726Z,11.40
2019-03-15T09:59:49.182Z,11.50
2019-03-15T10:02:29.679Z,11.50
2019-03-15T10:04:50.253Z,11.60
2019-03-15T10:07:19.250Z,11.60
2019-03-15T10:09:48.777Z,11.50
2019-03-15T10:14:53.162Z,10.90
2019-03-15T10:17:23.149Z,10.80
2019-03-15T10:19:52.374Z,10.70
2019-03-15T10:22:21.647Z,10.70
2019-03-15T10:24:50.753Z,10.70
2019-03-15T10:27:21.745Z,10.70
2019-03-15T10:29:50.914Z,10.70
2019-03-15T10:32:19.841Z,10.80
2019-03-15T10:34:48.839Z,10.90
2019-03-15T10:37:17.811Z,11.00
2019-03-15T10:39:47.029Z,11.10
2019-03-15T10:42:17.225Z,11.20
2019-03-15T10:44:48.515Z,11.30
2019-03-15T10:47:18.309Z,11.30
2019-03-15T10:52:22.084Z,11.40
2019-03-15T10:54:51.226Z,11.30
2019-03-15T10:57:22.058Z,11.30
2019-03-15T10:59:51.486Z,11.30
2019-03-15T11:02:20.415Z,11.30
2019-03-15T11:04:49.396Z,11.50
2019-03-15T11:07:18.651Z,11.60
2019-03-15T11:09:48.489Z,11.70
2019-03-15T11:12:17.347Z,11.60
2019-03-15T11:14:46.249Z,11.80
2019-03-15T11:17:15.998Z,11.80
2019-03-15T11:19:44.966Z,11.90
2019-03-15T11:22:13.878Z,12.00
2019-03-15T11:24:43.929Z,12.00
2019-03-15T11:27:16.162Z,12.10
2019-03-15T11:29:45.167Z,12.10
2019-03-15T11:32:14.007Z,12.20
2019-03-15T11:34:44.738Z,12.30
2019-03-15T11:37:13.676Z,12.30
2019-03-15T11:39:43.098Z,12.40
2019-03-15T11:42:14.869Z,12.50
2019-03-15T11:44:44.950Z,12.50
2019-03-15T11:47:14.749Z,12.40
2019-03-15T11:49:44.283Z,12.50
2019-03-15T11:52:14.149Z,12.60
2019-03-15T11:54:43.949Z,12.60
2019-03-15T11:57:14.546Z,12.60
2019-03-15T11:59:44.128Z,12.50
2019-03-15T12:02:13.910Z,12.50
2019-03-15T12:04:43.223Z,12.40
2019-03-15T12:07:13.095Z,12.30
2019-03-15T12:09:43.034Z,12.30
2019-03-15T12:12:11.992Z,12.20
2019-03-15T12:14:45.442Z,12.10
2019-03-15T12:17:14.407Z,12.00
2019-03-15T12:19:43.705Z,11.80
2019-03-15T12:22:15.154Z,11.60
2019-03-15T12:24:44.258Z,11.40
2019-03-15T12:27:18.518Z,11.20
2019-03-15T12:29:47.596Z,11.00
2019-03-15T12:32:16.486Z,10.90
2019-03-15T12:34:45.841Z,10.80
2019-03-15T12:37:15.478Z,10.70
2019-03-15T12:39:44.437Z,10.70
2019-03-15T12:42:16.821Z,10.60
2019-03-15T12:44:45.723Z,10.70
2019-03-15T12:47:17.971Z,10.60
2019-03-15T12:49:47.672Z,10.70
2019-03-15T12:52:16.597Z,10.60
2019-03-15T12:54:45.924Z,10.70
2019-03-15T12:57:14.915Z,10.70
2019-03-15T12:59:44.002Z,10.70
2019-03-15T13:02:12.923Z,10.60
2019-03-15T13:04:44.215Z,10.70
2019-03-15T13:07:14.939Z,10.70
2019-03-15T13:09:49.059Z,10.60
2019-03-15T13:12:18.014Z,10.60
2019-03-15T13:14:48.294Z,10.60
2019-03-15T13:17:17.995Z,10.50
2019-03-15T13:19:55.045Z,10.40
2019-03-15T13:22:19.533Z,10.50
2019-03-15T13:24:48.906Z,10.50
2019-03-15T13:27:17.747Z,10.60
2019-03-15T13:29:46.690Z,10.60
2019-03-15T13:32:15.989Z,10.60
2019-03-15T13:34:45.120Z,10.60
2019-03-15T13:37:14.494Z,10.70
2019-03-15T13:39:47.493Z,10.70
2019-03-15T13:42:16.424Z,10.70
2019-03-15T13:44:45.910Z,10.80
2019-03-15T13:47:15.113Z,11.00
2019-03-15T13:49:44.366Z,11.00
2019-03-15T13:52:14.770Z,11.10
2019-03-15T13:54:44.800Z,11.10
2019-03-15T13:57:21.270Z,11.00
2019-03-15T14:02:24.505Z,10.90
2019-03-15T14:04:53.400Z,10.80
2019-03-15T14:07:22.524Z,10.80
2019-03-15T14:09:51.417Z,10.80
2019-03-15T14:12:21.254Z,10.80
2019-03-15T14:14:51.074Z,10.80
2019-03-15T14:17:20.325Z,10.70
2019-03-15T14:22:24.589Z,10.70
2019-03-15T14:24:58.318Z,10.70
2019-03-15T14:27:37.406Z,10.70
2019-03-15T14:30:03.368Z,10.80
2019-03-15T14:32:32.708Z,10.80
2019-03-15T14:35:01.686Z,10.90
2019-03-15T14:37:31.040Z,10.90
2019-03-15T14:40:03.267Z,10.90
2019-03-15T14:42:32.284Z,10.90
2019-03-15T14:45:05.715Z,11.00
2019-03-15T14:47:34.961Z,11.00
2019-03-15T14:50:04.622Z,11.10
2019-03-15T14:52:34.172Z,11.20
2019-03-15T14:55:06.713Z,11.30
2019-03-15T14:57:36.031Z,11.30
2019-03-15T15:00:06.638Z,11.30
2019-03-15T15:02:35.869Z,11.30
2019-03-15T15:05:05.294Z,11.30
2019-03-15T15:07:34.558Z,11.20
2019-03-15T15:10:03.874Z,11.20
2019-03-15T15:12:32.797Z,11.20
2019-03-15T15:15:01.636Z,11.20
2019-03-15T15:17:31.058Z,11.10
2019-03-15T15:20:00.591Z,11.10
2019-03-15T15:22:29.485Z,11.00
2019-03-15T15:24:58.777Z,11.00
2019-03-15T15:27:29.813Z,11.00
2019-03-15T15:30:00.881Z,11.00
2019-03-15T15:32:30.159Z,11.00
2019-03-15T15:35:00.195Z,11.00
2019-03-15T15:37:29.769Z,11.00
2019-03-15T15:40:00.178Z,11.00
2019-03-15T15:42:32.431Z,11.00
2019-03-15T15:45:01.607Z,11.00
2019-03-15T15:47:30.562Z,11.10
2019-03-15T15:49:59.685Z,11.00
2019-03-15T15:52:29.472Z,11.00
2019-03-15T15:54:58.774Z,11.00
2019-03-15T15:57:27.685Z,10.90
2019-03-15T15:59:57.204Z,10.90
2019-03-15T16:02:26.107Z,10.80
2019-03-15T16:04:55.019Z,10.80
2019-03-15T16:07:23.934Z,10.70
2019-03-15T16:09:52.875Z,10.70
2019-03-15T16:14:57.892Z,10.70
2019-03-15T16:17:26.889Z,10.60
2019-03-15T16:19:55.816Z,10.60
2019-03-15T16:22:24.636Z,10.60
2019-03-15T16:24:56.133Z,10.50
2019-03-15T16:27:24.754Z,10.50
2019-03-15T16:29:53.886Z,10.50
2019-03-15T16:32:24.713Z,10.50
2019-03-15T16:34:54.138Z,10.40
2019-03-15T16:37:24.236Z,10.40
2019-03-15T16:39:56.323Z,10.30
2019-03-15T16:42:24.672Z,10.30
2019-03-15T16:44:56.448Z,10.30
2019-03-15T16:47:25.673Z,10.30
2019-03-15T16:49:54.998Z,10.30
2019-03-15T16:52:23.958Z,10.20
2019-03-15T16:54:52.892Z,10.20
2019-03-15T16:57:21.911Z,10.20
2019-03-15T16:59:53.213Z,10.10
2019-03-15T17:02:22.224Z,10.10
2019-03-15T17:04:51.569Z,10.00
2019-03-15T17:07:20.515Z,10.00
2019-03-15T17:09:49.478Z,10.00
2019-03-15T17:12:18.439Z,10.00
2019-03-15T17:14:47.556Z,10.00
2019-03-15T17:17:16.807Z,9.90
2019-03-15T17:19:46.446Z,9.90
2019-03-15T17:22:15.399Z,9.80
2019-03-15T17:24:44.593Z,9.70
2019-03-15T17:27:13.677Z,9.70
2019-03-15T17:29:42.689Z,9.70
2019-03-15T17:32:11.640Z,9.60
2019-03-15T17:34:40.456Z,9.60
2019-03-15T17:37:09.790Z,9.50
2019-03-15T17:39:38.785Z,9.40
2019-03-15T17:42:08.098Z,9.40
2019-03-15T17:44:37.148Z,9.30
2019-03-15T17:47:06.470Z,9.30
2019-03-15T17:49:35.468Z,9.20
2019-03-15T17:52:04.466Z,9.10
2019-03-15T17:54:33.863Z,9.10
2019-03-15T17:57:03.508Z,9.10
2019-03-15T17:59:35.670Z,9.00
2019-03-15T18:02:04.729Z,9.00
2019-03-15T18:04:33.569Z,9.00
2019-03-15T18:07:03.458Z,9.00
2019-03-15T18:09:32.522Z,9.00
2019-03-15T18:12:01.437Z,8.90
2019-03-15T18:14:30.335Z,8.90
2019-03-15T18:16:59.218Z,8.90
2019-03-15T18:19:28.194Z,8.90
2019-03-15T18:21:57.770Z,8.90
2019-03-15T18:24:27.062Z,8.90
2019-03-15T18:26:55.950Z,8.90
2019-03-15T18:31:59.835Z,8.90
2019-03-15T18:34:28.994Z,8.90
2019-03-15T18:36:59.179Z,8.90
2019-03-15T18:39:28.207Z,8.90
2019-03-15T18:41:57.118Z,8.80
2019-03-15T18:44:26.110Z,8.80
2019-03-15T18:46:55.657Z,8.80
2019-03-15T18:49:24.598Z,8.80
2019-03-15T18:51:53.765Z,8.80
2019-03-15T18:54:22.639Z,8.80
2019-03-15T18:56:52.333Z,8.80
2019-03-15T18:59:21.831Z,8.70
2019-03-15T19:01:51.989Z,8.70
2019-03-15T19:04:21.663Z,8.70
2019-03-15T19:06:50.637Z,8.70
2019-03-15T19:09:19.596Z,8.70
2019-03-15T19:11:48.508Z,8.80
2019-03-15T19:14:17.412Z,8.80
2019-03-15T19:16:46.803Z,8.80
2019-03-15T19:19:17.111Z,8.80
2019-03-15T19:24:23.083Z,8.80
2019-03-15T19:26:52.062Z,8.80
2019-03-15T19:29:24.223Z,8.80
2019-03-15T19:31:53.155Z,8.80
2019-03-15T19:34:22.718Z,8.80
2019-03-15T19:36:52.163Z,8.90
2019-03-15T19:39:24.167Z,8.90
2019-03-15T19:41:54.139Z,8.90
2019-03-15T19:44:23.107Z,8.90
2019-03-15T19:46:52.045Z,8.90
2019-03-15T19:49:21.755Z,8.90
2019-03-15T19:51:50.974Z,8.90
2019-03-15T19:54:21.069Z,8.90
2019-03-15T19:59:27.318Z,8.90
2019-03-15T20:01:56.532Z,8.90
2019-03-15T20:04:25.761Z,8.80
2019-03-15T20:06:56.775Z,8.80
2019-03-15T20:09:26.458Z,8.80
2019-03-15T20:11:55.366Z,8.70
2019-03-15T20:14:25.479Z,8.60
2019-03-15T20:16:54.967Z,8.60
2019-03-15T20:19:23.992Z,8.50
2019-03-15T20:21:52.934Z,8.50
2019-03-15T20:24:21.858Z,8.50
2019-03-15T20:26:52.967Z,8.40
2019-03-15T20:29:25.341Z,8.40
2019-03-15T20:31:56.568Z,8.40
2019-03-15T20:34:26.068Z,8.30
2019-03-15T20:36:55.326Z,8.30
2019-03-15T20:39:24.750Z,8.30
2019-03-15T20:41:54.210Z,8.30
2019-03-15T20:44:28.340Z,8.20
2019-03-15T20:46:53.882Z,8.20
2019-03-15T20:49:22.852Z,8.20
2019-03-15T20:51:53.126Z,8.20
2019-03-15T20:54:22.066Z,8.20
2019-03-15T20:56:50.993Z,8.20
2019-03-15T20:59:20.266Z,8.20
2019-03-15T21:01:49.683Z,8.30
2019-03-15T21:04:19.453Z,8.30
2019-03-15T21:06:51.669Z,8.30
2019-03-15T21:09:21.201Z,8.40
2019-03-15T21:11:50.394Z,8.30
2019-03-15T21:14:19.663Z,8.40
2019-03-15T21:16:49.119Z,8.40
2019-03-15T21:19:18.364Z,8.30
2019-03-15T21:21:47.389Z,8.30
2019-03-15T21:24:16.398Z,8.30
2019-03-15T21:26:45.398Z,8.30
2019-03-15T21:31:50.303Z,8.50
2019-03-15T21:34:19.174Z,8.50
2019-03-15T21:36:50.736Z,8.60
2019-03-15T21:39:21.355Z,8.60
2019-03-15T21:44:25.251Z,8.70
2019-03-15T21:46:54.130Z,8.60
2019-03-15T21:49:22.944Z,8.70
2019-03-15T21:51:52.017Z,8.80
2019-03-15T21:54:21.545Z,8.80
2019-03-15T21:56:51.680Z,8.80
2019-03-15T21:59:21.201Z,8.90
2019-03-15T22:01:51.110Z,8.90
2019-03-15T22:04:20.339Z,9.00
2019-03-15T22:06:53.724Z,9.00
2019-03-15T22:09:26.618Z,9.00
2019-03-15T22:12:02.388Z,9.00
2019-03-15T22:14:31.393Z,9.00
2019-03-15T22:17:00.408Z,9.00
2019-03-15T22:19:29.959Z,9.10
2019-03-15T22:21:59.008Z,9.00
2019-03-15T22:24:28.334Z,9.00
2019-03-15T22:26:57.637Z,9.00
2019-03-15T22:29:28.221Z,9.00
2019-03-15T22:31:57.128Z,9.10
2019-03-15T22:34:26.817Z,9.00
2019-03-15T22:36:55.724Z,9.00
2019-03-15T22:39:30.873Z,9.00
2019-03-15T22:42:00.942Z,9.00
2019-03-15T22:44:30.293Z,9.00
2019-03-15T22:47:03.333Z,9.00
2019-03-15T22:49:34.725Z,9.00
2019-03-15T22:52:05.219Z,8.90
2019-03-15T22:54:35.225Z,8.90
2019-03-15T22:57:04.428Z,8.90
2019-03-15T22:59:33.636Z,8.90
2019-03-15T23:02:03.113Z,8.90
2019-03-15T23:04:32.471Z,8.90
2019-03-15T23:07:02.939Z,8.90
2019-03-15T23:09:32.299Z,8.90
2019-03-15T23:12:01.647Z,8.90
2019-03-15T23:14:31.278Z,8.90
2019-03-15T23:17:05.132Z,8.80
2019-03-15T23:19:33.972Z,8.80
2019-03-15T23:22:03.251Z,8.80
2019-03-15T23:24:33.184Z,8.80
2019-03-15T23:27:02.186Z,8.80
2019-03-15T23:29:31.480Z,8.80
2019-03-15T23:32:00.291Z,8.80
2019-03-15T23:34:29.251Z,8.70
2019-03-15T23:36:58.361Z,8.70
2019-03-15T23:39:27.271Z,8.70
2019-03-15T23:41:56.175Z,8.70
2019-03-15T23:44:25.087Z,8.70
2019-03-15T23:46:54.211Z,8.70
2019-03-15T23:49:23.142Z,8.70
2019-03-15T23:51:52.261Z,8.60
2019-03-15T23:54:21.172Z,8.60
2019-03-15T23:56:50.752Z,8.60
2019-03-15T23:59:19.661Z,8.60
